Time;durP1;ratioP1;P1;durP2;ratioP2;P2;SDS_P1;SDS_P2;PMS_P1;PMS_P2;Temp;Humidity;BMP_temperature;BMP_pressure;BME280_temperature;BME280_humidity;BME280_pressure;Samples;Min_cycle;Max_cycle;Signal;HPM_P1;HPM_P2
2024/01/16 00:02:18;;;;;;;3.87;2.90;;;;;;;16.82;40.37;96109.00;10364667;28;20724;-30
2024/01/16 00:07:18;;;;;;;4.97;3.63;;;;;;;16.85;40.65;96116.56;10366294;28;20520;-30
2024/01/16 00:12:18;;;;;;;4.37;3.30;;;;;;;16.82;41.10;96109.00;10364498;28;20497;-30
2024/01/16 00:17:21;;;;;;;5.17;3.13;;;;;;;16.82;41.28;96104.78;10365019;28;20041;-30
2024/01/16 00:22:21;;;;;;;3.90;2.60;;;;;;;16.81;41.14;96107.34;10365216;28;20064;-29
2024/01/16 00:27:22;;;;;;;4.00;2.93;;;;;;;16.81;41.08;96104.81;10364579;28;20040;-30
2024/01/16 00:32:22;;;;;;;5.97;2.70;;;;;;;16.82;40.98;96106.50;10362908;28;20030;-30
2024/01/16 00:37:22;;;;;;;4.27;3.03;;;;;;;16.81;40.84;96105.63;10365332;28;20284;-30
2024/01/16 00:42:23;;;;;;;4.20;2.80;;;;;;;16.79;41.20;96101.44;10364144;28;20038;-30
2024/01/16 00:47:24;;;;;;;4.97;2.73;;;;;;;16.81;41.35;96110.69;10364193;28;20044;-30
2024/01/16 00:52:24;;;;;;;5.57;2.85;;;;;;;16.80;41.46;96108.16;10364443;28;20591;-31
2024/01/16 00:57:24;;;;;;;2.95;2.30;;;;;;;16.80;41.36;96110.69;10363510;28;20522;-30
2024/01/16 01:02:25;;;;;;;3.73;2.53;;;;;;;16.79;41.42;96112.38;10363365;28;20083;-30
2024/01/16 01:07:25;;;;;;;4.32;2.42;;;;;;;16.79;40.95;96119.13;10364403;28;20549;-31
2024/01/16 01:12:26;;;;;;;3.55;2.08;;;;;;;16.79;41.21;96112.38;10362487;28;20034;-30
2024/01/16 01:17:27;;;;;;;3.13;2.20;;;;;;;16.80;40.46;96116.59;10363016;28;20061;-32
2024/01/16 01:22:27;;;;;;;5.88;2.22;;;;;;;16.79;39.90;96109.88;10362993;28;20449;-30
2024/01/16 01:27:28;;;;;;;3.40;2.00;;;;;;;16.80;40.25;96115.75;10361335;28;20034;-29
2024/01/16 01:32:28;;;;;;;5.40;2.53;;;;;;;16.79;39.89;96111.53;10362449;28;20042;-30
2024/01/16 01:37:28;;;;;;;3.03;1.70;;;;;;;16.79;38.87;96114.91;10363383;28;20038;-29
2024/01/16 01:42:31;;;;;;;4.30;1.80;;;;;;;16.78;38.95;96117.44;10364099;28;20697;-30
2024/01/16 01:47:32;;;;;;;3.20;1.90;;;;;;;16.73;39.48;96101.47;10370981;28;20327;-30
2024/01/16 01:52:33;;;;;;;2.45;1.90;;;;;;;16.76;39.60;96116.63;10371263;28;20040;-30
2024/01/16 01:57:34;;;;;;;2.40;1.65;;;;;;;16.75;40.19;96117.47;10370723;28;20042;-30
2024/01/16 02:02:34;;;;;;;3.58;1.90;;;;;;;16.77;39.62;96112.41;10369603;28;20026;-30
2024/01/16 02:07:35;;;;;;;3.50;1.98;;;;;;;16.76;40.05;96116.63;10371446;28;20030;-30
2024/01/16 02:12:36;;;;;;;3.80;1.92;;;;;;;16.77;40.13;96112.41;10369433;28;20026;-30
2024/01/16 02:17:36;;;;;;;3.50;1.70;;;;;;;16.77;40.24;96103.13;10366870;28;20034;-29
2024/01/16 02:22:38;;;;;;;5.00;1.87;;;;;;;16.77;40.33;96105.66;10369718;28;20281;-30
2024/01/16 02:27:38;;;;;;;2.58;1.90;;;;;;;16.77;40.32;96104.81;10369614;28;20073;-30
2024/01/16 02:32:39;;;;;;;5.40;1.80;;;;;;;16.77;39.04;96104.81;10368028;28;20091;-29
2024/01/16 02:37:39;;;;;;;3.03;1.53;;;;;;;16.77;39.18;96100.59;10369777;28;20036;-31
2024/01/16 02:42:39;;;;;;;2.10;1.63;;;;;;;16.77;38.38;96087.13;10368962;28;20045;-30
2024/01/16 02:47:40;;;;;;;1.97;1.40;;;;;;;16.75;39.57;96095.53;10369488;28;20498;-29
2024/01/16 02:52:40;;;;;;;2.70;1.60;;;;;;;16.75;37.66;96098.06;10369809;28;20533;-29
2024/01/16 02:57:41;;;;;;;2.37;1.57;;;;;;;16.75;38.37;96102.28;10368244;28;20042;-30
2024/01/16 03:02:41;;;;;;;2.30;1.67;;;;;;;16.75;38.15;96110.69;10368002;28;20757;-29
2024/01/16 03:07:41;;;;;;;3.10;2.10;;;;;;;16.75;38.45;96104.81;10368903;28;20038;-30
2024/01/16 03:12:42;;;;;;;2.00;1.30;;;;;;;16.75;38.03;96094.72;10368544;28;20022;-30
2024/01/16 03:17:42;;;;;;;3.63;1.47;;;;;;;16.73;38.29;96087.13;10367598;28;20033;-30
2024/01/16 03:22:44;;;;;;;2.33;1.40;;;;;;;16.74;37.87;96098.09;10369083;28;20297;-29
2024/01/16 03:27:44;;;;;;;2.80;1.70;;;;;;;16.74;39.53;96103.16;10368450;28;20285;-30
2024/01/16 03:32:44;;;;;;;3.13;1.40;;;;;;;16.71;38.25;96089.66;10366685;28;20034;-30
2024/01/16 03:37:45;;;;;;;1.83;1.50;;;;;;;16.74;38.39;96103.16;10368785;28;20280;-29
2024/01/16 03:42:45;;;;;;;2.43;1.60;;;;;;;16.76;37.30;96101.44;10367269;28;20105;-29
2024/01/16 03:47:45;;;;;;;2.27;1.20;;;;;;;16.74;38.04;96098.91;10364879;28;20087;-30
2024/01/16 03:52:46;;;;;;;3.33;1.77;;;;;;;16.74;38.22;96103.16;10366959;28;20501;-30
2024/01/16 03:57:46;;;;;;;3.70;1.60;;;;;;;16.73;37.86;96096.41;10366946;28;20289;-29
2024/01/16 04:02:47;;;;;;;1.93;1.57;;;;;;;16.74;37.46;96088.81;10365343;28;20687;-30
2024/01/16 04:07:47;;;;;;;2.05;1.23;;;;;;;16.73;37.93;96086.31;10366410;28;20041;-30
2024/01/16 04:12:47;;;;;;;1.40;1.07;;;;;;;16.73;37.83;96096.41;10365293;28;20034;-30
2024/01/16 04:17:48;;;;;;;1.60;1.23;;;;;;;16.73;37.43;96083.78;10364291;28;20052;-30
2024/01/16 04:22:48;;;;;;;1.70;1.00;;;;;;;16.74;37.27;96087.97;10364352;28;20501;-29
2024/01/16 04:27:49;;;;;;;3.27;1.40;;;;;;;16.73;37.69;96079.53;10364893;28;20292;-30
2024/01/16 04:32:49;;;;;;;2.38;1.38;;;;;;;16.75;37.66;96079.53;10362599;28;20295;-30
2024/01/16 04:37:49;;;;;;;1.40;1.20;;;;;;;16.74;37.34;96087.97;10365115;28;20581;-30
2024/01/16 04:42:50;;;;;;;1.63;1.10;;;;;;;16.67;38.13;96071.16;10362325;28;20037;-30
2024/01/16 04:47:50;;;;;;;1.47;0.90;;;;;;;16.74;37.11;96071.09;10362690;28;20030;-30
2024/01/16 04:52:50;;;;;;;1.97;1.20;;;;;;;16.76;37.35;96076.16;10364497;28;20041;-30
2024/01/16 04:57:51;;;;;;;2.60;1.40;;;;;;;16.75;36.69;96042.44;10361413;28;20034;-30
2024/01/16 05:02:51;;;;;;;2.50;1.13;;;;;;;16.75;36.96;96039.94;10362884;28;20045;-30
2024/01/16 05:07:51;;;;;;;1.60;1.00;;;;;;;16.77;36.47;96034.88;10363810;28;20029;-30
2024/01/16 05:12:52;;;;;;;1.43;1.23;;;;;;;16.77;36.41;96030.69;10362390;28;20030;-30
2024/01/16 05:17:53;;;;;;;1.60;1.17;;;;;;;16.78;36.93;96023.91;10361558;28;20022;-29
2024/01/16 05:22:53;;;;;;;1.60;1.13;;;;;;;16.80;36.88;96012.09;10362421;28;20042;-30
2024/01/16 05:27:53;;;;;;;1.63;1.03;;;;;;;16.80;35.67;96002.00;10362465;28;20108;-31
2024/01/16 05:32:55;;;;;;;1.47;1.13;;;;;;;16.81;36.00;96006.22;10359079;28;20037;-30
2024/01/16 05:37:56;;;;;;;2.85;1.10;;;;;;;16.80;35.85;96004.50;10361910;28;20184;-30
2024/01/16 05:42:57;;;;;;;2.33;1.00;;;;;;;16.88;36.04;96011.22;10361575;28;20538;-30
2024/01/16 05:47:57;;;;;;;1.47;0.93;;;;;;;16.85;34.69;95992.72;10362140;28;20138;-30
2024/01/16 05:52:57;;;;;;;4.13;1.38;;;;;;;16.95;34.80;95996.84;10362768;28;20279;-30
2024/01/16 05:57:59;;;;;;;1.73;1.27;;;;;;;16.94;35.91;95997.72;10362136;28;20037;-30
2024/01/16 06:02:59;;;;;;;3.45;1.05;;;;;;;16.93;34.92;95998.56;10360879;28;20139;-29
2024/01/16 06:08:00;;;;;;;4.10;1.60;;;;;;;16.69;34.47;96001.22;10360568;28;20037;-30
2024/01/16 06:13:00;;;;;;;3.67;1.93;;;;;;;16.80;35.74;96007.03;10359553;28;20034;-30
2024/01/16 06:18:03;;;;;;;2.23;1.23;;;;;;;16.80;35.02;96004.50;10362416;28;20111;-29
2024/01/16 06:23:03;;;;;;;2.97;1.10;;;;;;;16.87;33.77;96008.69;10361535;28;20490;-29
2024/01/16 06:28:05;;;;;;;5.38;1.50;;;;;;;16.59;33.36;96006.31;10360793;28;20048;-31
2024/01/16 06:33:05;;;;;;;4.63;1.92;;;;;;;15.90;30.96;96007.31;10360790;28;20559;-29
2024/01/16 06:38:06;;;;;;;4.38;1.55;;;;;;;16.27;32.67;96003.03;10362108;28;20038;-30
2024/01/16 06:43:07;;;;;;;5.28;1.35;;;;;;;16.45;33.27;95993.72;10363203;28;20030;-32
2024/01/16 06:48:07;;;;;;;4.72;1.60;;;;;;;16.53;33.05;95992.00;10362412;28;20030;-29
2024/01/16 06:53:08;;;;;;;5.28;1.70;;;;;;;16.53;32.89;95981.09;10368302;28;20030;-31
2024/01/16 06:58:09;;;;;;;1.70;1.30;;;;;;;16.62;32.92;95981.03;10369505;28;20513;-30
2024/01/16 07:03:10;;;;;;;2.67;1.30;;;;;;;16.64;32.75;95971.75;10367872;28;20125;-30
2024/01/16 07:08:10;;;;;;;2.47;1.53;;;;;;;16.65;32.89;95975.97;10368758;28;20038;-30
2024/01/16 07:13:12;;;;;;;1.75;1.40;;;;;;;16.64;33.51;95972.63;10367126;28;20314;-30
2024/01/16 07:18:12;;;;;;;1.60;1.15;;;;;;;16.71;33.32;95969.19;10367342;28;20033;-31
2024/01/16 07:23:12;;;;;;;1.43;0.90;;;;;;;16.72;33.40;95968.38;10367546;28;20046;-31
2024/01/16 07:28:14;;;;;;;1.60;1.10;;;;;;;16.75;33.79;95968.34;10367644;28;20777;-30
2024/01/16 07:33:14;;;;;;;1.33;1.15;;;;;;;16.78;33.72;95978.41;10366340;28;20040;-30
2024/01/16 07:38:15;;;;;;;1.60;1.43;;;;;;;16.77;33.36;95976.75;10367639;28;20559;-31
2024/01/16 07:43:15;;;;;;;1.37;1.00;;;;;;;16.78;33.69;95973.34;10365443;28;20063;-30
2024/01/16 07:48:16;;;;;;;1.88;1.08;;;;;;;16.78;33.17;95975.88;10366603;28;20040;-29
2024/01/16 07:53:18;;;;;;;1.73;1.00;;;;;;;16.77;33.40;95986.84;10366647;28;20465;-31
2024/01/16 07:58:19;;;;;;;1.40;1.10;;;;;;;16.74;33.32;95981.81;10367023;28;20364;-30
2024/01/16 08:03:21;;;;;;;1.70;1.10;;;;;;;16.73;33.29;95989.41;10364906;28;20470;-31
2024/01/16 08:08:22;;;;;;;1.25;0.85;;;;;;;16.71;32.39;95981.81;10365952;28;20502;-29
2024/01/16 08:13:22;;;;;;;3.53;1.27;;;;;;;16.70;31.92;95987.72;10364756;28;20033;-29
2024/01/16 08:18:22;;;;;;;1.47;0.97;;;;;;;16.69;31.73;95983.53;10364630;28;20049;-30
2024/01/16 08:23:23;;;;;;;2.57;1.23;;;;;;;16.66;31.43;95986.06;10365442;28;20046;-30
2024/01/16 08:28:24;;;;;;;1.25;1.02;;;;;;;16.67;31.55;95975.13;10365217;28;20144;-30
2024/01/16 08:33:25;;;;;;;2.78;1.08;;;;;;;16.66;31.72;95968.38;10364059;28;20510;-30
2024/01/16 08:38:25;;;;;;;1.35;0.90;;;;;;;16.67;32.21;95969.19;10365071;28;20069;-29
2024/01/16 08:43:26;;;;;;;0.73;0.70;;;;;;;16.68;32.00;95974.25;10363961;28;20042;-30
2024/01/16 08:48:26;;;;;;;0.97;0.80;;;;;;;16.67;32.92;95957.44;10364299;28;20661;-30
2024/01/16 08:53:27;;;;;;;1.30;1.20;;;;;;;16.67;32.32;95961.63;10362967;28;20100;-30
2024/01/16 08:58:28;;;;;;;2.00;1.50;;;;;;;16.66;31.89;95960.81;10363682;28;20061;-30
2024/01/16 09:03:28;;;;;;;1.40;0.87;;;;;;;16.68;33.13;95959.09;10363178;28;20038;-30
2024/01/16 09:08:29;;;;;;;1.80;1.00;;;;;;;16.63;32.97;95945.63;10364512;28;20276;-30
2024/01/16 09:13:29;;;;;;;1.67;1.00;;;;;;;16.71;33.53;95961.59;10363866;28;20108;-30
2024/01/16 09:18:29;;;;;;;2.33;2.13;;;;;;;16.73;33.37;95959.94;10362762;28;20036;-30
2024/01/16 09:23:30;;;;;;;0.87;0.80;;;;;;;16.72;33.47;95958.25;10363413;28;20557;-30
2024/01/16 09:28:31;;;;;;;0.57;0.57;;;;;;;16.73;32.95;95959.06;10362877;28;20516;-30
2024/01/16 09:33:31;;;;;;;1.77;1.43;;;;;;;16.72;33.06;95947.28;10361989;28;20049;-30
2024/01/16 09:38:32;;;;;;;1.00;0.80;;;;;;;16.70;32.90;95944.75;10363408;28;20277;-30
2024/01/16 09:43:33;;;;;;;2.67;1.02;;;;;;;16.68;33.07;95938.88;10376741;28;20128;-30
2024/01/16 09:48:34;;;;;;;1.45;0.85;;;;;;;16.69;32.63;95943.09;10360617;28;20042;-30
2024/01/16 09:53:34;;;;;;;1.57;1.03;;;;;;;16.68;32.85;95928.78;10362884;28;20034;-30
2024/01/16 09:58:36;;;;;;;1.93;1.00;;;;;;;16.67;32.77;95926.25;10362328;28;20034;-30
2024/01/16 10:03:37;;;;;;;1.65;1.13;;;;;;;16.67;32.66;95932.16;10363711;28;20103;-30
2024/01/16 10:08:38;;;;;;;1.45;1.20;;;;;;;16.66;32.47;95930.47;10370815;28;20317;-30
2024/01/16 10:13:38;;;;;;;2.28;0.90;;;;;;;16.66;32.22;95927.94;10369549;28;20652;-29
2024/01/16 10:18:39;;;;;;;1.60;0.98;;;;;;;16.64;32.55;95924.59;10369723;28;20064;-29
2024/01/16 10:23:40;;;;;;;1.00;0.87;;;;;;;16.64;32.57;95909.44;10369691;28;20065;-29
2024/01/16 10:28:42;;;;;;;1.67;1.25;;;;;;;16.64;31.85;95906.91;10369686;28;20456;-30
2024/01/16 10:33:43;;;;;;;1.42;1.10;;;;;;;16.63;32.17;95912.78;10368633;28;20038;-29
2024/01/16 10:38:45;;;;;;;1.58;0.85;;;;;;;16.64;32.37;95906.06;10369634;28;20037;-30
2024/01/16 10:43:46;;;;;;;2.65;1.25;;;;;;;16.61;32.42;95914.50;10366262;28;20041;-30
2024/01/16 10:49:03;;;;;;;1.13;1.00;;;;;;;16.63;32.58;95906.91;10368489;28;20068;-30
2024/01/16 10:54:05;;;;;;;1.27;0.85;;;;;;;16.63;32.62;95914.50;10366377;28;20044;-30
2024/01/16 10:59:25;;;;;;;1.15;0.90;;;;;;;16.65;32.88;95906.06;10367913;28;20523;-30
2024/01/16 11:04:27;;;;;;;1.35;1.05;;;;;;;16.70;33.57;95904.31;10364650;28;20192;-30
2024/01/16 11:09:28;;;;;;;1.13;0.77;;;;;;;16.73;33.53;95882.41;10365937;28;20048;-30
2024/01/16 11:14:30;;;;;;;3.67;1.13;;;;;;;16.75;33.49;95878.16;10367161;28;20045;-30
2024/01/16 11:19:32;;;;;;;2.95;1.52;;;;;;;16.78;33.21;95879.84;10367005;28;20034;-31
2024/01/16 11:24:33;;;;;;;1.38;0.60;;;;;;;16.78;33.53;95893.34;10367716;28;20514;-30
2024/01/16 11:29:35;;;;;;;1.47;0.80;;;;;;;16.78;34.21;95882.38;10366862;28;20049;-31
2024/01/16 11:34:57;;;;;;;1.25;0.98;;;;;;;16.75;33.70;95888.28;10366185;28;20053;-31
2024/01/16 11:40:22;;;;;;;1.98;0.98;;;;;;;16.72;33.30;95872.31;10364553;28;20038;-29
2024/01/16 11:45:31;;;;;;;1.73;1.42;;;;;;;16.76;33.29;95856.28;10366534;28;20049;-30
2024/01/16 11:50:32;;;;;;;1.48;0.60;;;;;;;16.77;33.46;95849.53;10366824;28;20044;-30
2024/01/16 11:55:37;;;;;;;1.10;0.60;;;;;;;16.76;32.87;95841.09;10365978;28;20037;-30
2024/01/16 12:00:41;;;;;;;1.02;0.80;;;;;;;16.77;32.73;95828.47;10365382;28;20041;-29
2024/01/16 12:05:43;;;;;;;1.13;0.90;;;;;;;16.78;33.12;95830.16;10362588;28;20107;-29
2024/01/16 12:10:50;;;;;;;1.48;1.15;;;;;;;16.77;32.76;95813.31;10365104;28;20030;-31
2024/01/16 12:16:04;;;;;;;2.57;0.90;;;;;;;16.79;32.77;95808.22;10364468;28;20732;-30
2024/01/16 12:21:09;;;;;;;1.58;0.90;;;;;;;16.75;33.30;95796.47;10365903;28;20042;-30
2024/01/16 12:26:09;;;;;;;2.97;1.27;;;;;;;16.62;31.40;95799.09;10364639;28;20041;-30
2024/01/16 12:31:18;;;;;;;7.23;1.07;;;;;;;16.72;32.21;95775.44;10363253;28;20037;-30
2024/01/16 12:36:18;;;;;;;5.38;1.20;;;;;;;16.82;32.71;95775.34;10365152;28;20367;-30
2024/01/16 12:41:20;;;;;;;5.20;1.45;;;;;;;16.79;33.43;95767.78;10363121;28;20468;-30
2024/01/16 12:46:22;;;;;;;3.75;1.10;;;;;;;16.84;31.66;95763.53;10364389;28;20088;-30
2024/01/16 12:51:25;;;;;;;1.38;0.80;;;;;;;16.86;31.46;95749.19;10363607;28;20064;-31
2024/01/16 12:56:25;;;;;;;4.10;0.95;;;;;;;16.88;31.11;95734.84;10364382;28;20037;-30
2024/01/16 13:01:29;;;;;;;3.13;1.30;;;;;;;16.89;30.72;95734.00;10362826;28;20405;-30
2024/01/16 13:06:29;;;;;;;3.50;1.48;;;;;;;16.88;31.45;95729.78;10363654;28;20042;-30
2024/01/16 13:11:29;;;;;;;2.77;1.10;;;;;;;16.88;30.88;95724.72;10362276;28;20040;-30
2024/01/16 13:16:30;;;;;;;2.93;1.67;;;;;;;16.77;31.12;95713.06;10363052;28;20974;-29
2024/01/16 13:21:30;;;;;;;4.77;1.30;;;;;;;16.89;30.58;95713.78;10363705;28;20657;-31
2024/01/16 13:26:32;;;;;;;1.87;1.27;;;;;;;16.86;30.19;95698.63;10362206;28;20041;-30
2024/01/16 13:31:32;;;;;;;4.15;1.05;;;;;;;16.83;29.84;95703.72;10362791;28;20080;-30
2024/01/16 13:36:32;;;;;;;2.50;1.23;;;;;;;16.79;29.88;95697.00;10363648;28;20026;-30
2024/01/16 13:41:33;;;;;;;4.63;1.87;;;;;;;16.80;29.81;95691.94;10362429;28;20421;-30
2024/01/16 13:46:33;;;;;;;4.67;1.83;;;;;;;16.80;29.44;95694.47;10362671;28;20317;-31
2024/01/16 13:51:34;;;;;;;2.83;1.47;;;;;;;16.80;29.61;95686.03;10362819;28;20287;-31
2024/01/16 13:56:34;;;;;;;2.20;1.30;;;;;;;16.88;29.49;95681.75;10362170;28;20380;-29
2024/01/16 14:01:34;;;;;;;3.93;1.23;;;;;;;16.92;30.38;95678.34;10360270;28;20061;-32
2024/01/16 14:06:35;;;;;;;2.87;1.57;;;;;;;16.92;30.67;95670.78;10358095;28;20103;-30
2024/01/16 14:11:35;;;;;;;4.70;1.37;;;;;;;16.92;30.71;95693.53;10361916;28;20466;-30
2024/01/16 14:16:35;;;;;;;3.53;2.40;;;;;;;16.90;31.23;95692.69;10361463;28;20405;-30
2024/01/16 14:21:36;;;;;;;3.10;2.05;;;;;;;16.92;30.61;95691.00;10362220;28;20092;-29
2024/01/16 14:26:37;;;;;;;3.13;1.60;;;;;;;16.94;30.61;95694.34;10361703;28;20537;-29
2024/01/16 14:31:37;;;;;;;5.32;2.58;;;;;;;16.80;32.13;95681.00;10360741;28;20284;-30
2024/01/16 14:36:37;;;;;;;5.30;1.50;;;;;;;16.65;31.56;95670.19;10361910;28;20030;-30
2024/01/16 14:41:38;;;;;;;6.93;1.80;;;;;;;16.76;31.54;95671.78;10357062;28;20261;-30
2024/01/16 14:46:43;;;;;;;3.83;1.88;;;;;;;16.79;31.21;95675.13;10361386;28;20045;-29
2024/01/16 14:51:43;;;;;;;4.25;1.58;;;;;;;16.79;31.07;95672.59;10364808;28;20521;-30
2024/01/16 14:56:43;;;;;;;1.83;1.33;;;;;;;16.81;31.00;95680.97;10368247;28;20053;-31
2024/01/16 15:01:44;;;;;;;3.10;1.30;;;;;;;16.80;31.19;95686.03;10367599;28;20026;-29
2024/01/16 15:06:44;;;;;;;3.75;1.27;;;;;;;16.81;31.93;95685.22;10369317;28;20304;-31
2024/01/16 15:11:45;;;;;;;2.77;1.67;;;;;;;16.86;30.28;95678.41;10367718;28;20041;-30
2024/01/16 15:16:45;;;;;;;3.57;1.43;;;;;;;16.86;30.88;95683.47;10367199;28;20029;-29
2024/01/16 15:21:46;;;;;;;3.25;1.30;;;;;;;16.83;32.17;95668.34;10368184;28;20653;-29
2024/01/16 15:26:46;;;;;;;2.40;1.40;;;;;;;16.89;31.09;95673.34;10367058;28;20140;-29
2024/01/16 15:31:47;;;;;;;3.63;1.60;;;;;;;16.91;31.45;95674.16;10366077;28;20041;-30
2024/01/16 15:36:47;;;;;;;2.17;1.23;;;;;;;16.92;30.63;95680.88;10359905;28;20284;-30
2024/01/16 15:41:50;;;;;;;2.08;1.42;;;;;;;16.92;30.25;95684.22;10357843;28;20084;-30
2024/01/16 15:47:02;;;;;;;2.65;1.77;;;;;;;16.92;30.11;95678.34;10363329;28;20156;-30
2024/01/16 15:52:03;;;;;;;3.40;1.65;;;;;;;16.91;30.01;95677.50;10358529;28;20041;-30
2024/01/16 15:57:03;;;;;;;2.00;1.40;;;;;;;16.93;29.70;95674.97;10363089;28;20778;-30
2024/01/16 16:02:06;;;;;;;4.18;1.77;;;;;;;16.94;29.89;95689.28;10364785;28;20042;-29
2024/01/16 16:07:07;;;;;;;2.33;1.45;;;;;;;16.94;29.88;95704.44;10366033;28;20042;-30
2024/01/16 16:12:08;;;;;;;3.42;1.60;;;;;;;16.85;29.97;95702.00;10364794;28;20033;-29
2024/01/16 16:17:08;;;;;;;3.47;1.77;;;;;;;16.71;31.46;95719.00;10364431;28;20421;-29
2024/01/16 16:22:08;;;;;;;3.53;2.30;;;;;;;16.79;31.22;95717.22;10364749;28;20049;-29
2024/01/16 16:27:25;;;;;;;3.37;1.40;;;;;;;16.80;31.54;95729.84;10364364;28;20037;-30
2024/01/16 16:32:29;;;;;;;6.20;1.85;;;;;;;16.86;29.61;95726.44;10364372;28;20295;-31
2024/01/16 16:37:30;;;;;;;9.93;2.15;;;;;;;16.81;32.36;95733.25;10365483;28;20038;-30
2024/01/16 16:42:31;;;;;;;4.20;2.00;;;;;;;16.81;30.70;95740.81;10363766;28;20099;-31
2024/01/16 16:47:31;;;;;;;4.60;1.90;;;;;;;16.84;31.07;95741.59;10364292;28;20033;-30
2024/01/16 16:52:32;;;;;;;3.80;2.53;;;;;;;16.85;31.00;95732.34;10364463;28;20441;-30
2024/01/16 16:57:32;;;;;;;5.30;2.00;;;;;;;16.84;30.07;95731.50;10363330;28;20516;-30
2024/01/16 17:02:32;;;;;;;3.47;2.05;;;;;;;16.88;29.62;95717.13;10359265;28;20300;-30
2024/01/16 17:07:33;;;;;;;3.10;1.98;;;;;;;16.89;30.05;95711.25;10359366;28;20046;-30
2024/01/16 17:12:33;;;;;;;4.80;2.42;;;;;;;16.85;29.56;95712.97;10359997;28;20101;-30
2024/01/16 17:17:34;;;;;;;6.60;3.30;;;;;;;16.63;30.04;95709.81;10358541;28;20497;-31
2024/01/16 17:22:35;;;;;;;8.18;2.72;;;;;;;16.76;32.57;95707.16;10362555;28;20417;-30
2024/01/16 17:27:35;;;;;;;8.00;2.43;;;;;;;16.79;35.66;95694.47;10361590;28;20034;-30
2024/01/16 17:32:36;;;;;;;8.50;3.70;;;;;;;16.76;38.65;95689.47;10361510;28;20075;-29
2024/01/16 17:37:37;;;;;;;8.20;3.30;;;;;;;16.70;40.98;95681.94;10363292;28;20297;-30
2024/01/16 17:42:40;;;;;;;4.15;3.13;;;;;;;16.70;40.88;95681.94;10362153;28;20087;-30
2024/01/16 17:47:41;;;;;;;9.10;3.33;;;;;;;16.64;40.29;95671.91;10376394;28;20124;-30
2024/01/16 17:52:41;;;;;;;5.22;3.38;;;;;;;16.74;39.06;95676.00;10361653;28;20034;-29
2024/01/16 17:57:41;;;;;;;6.73;5.17;;;;;;;16.68;39.83;95668.50;10362040;28;20037;-30
2024/01/16 18:02:42;;;;;;;7.35;5.38;;;;;;;16.67;39.00;95660.91;10361192;28;20128;-29
2024/01/16 18:07:42;;;;;;;7.03;5.30;;;;;;;16.66;37.64;95660.09;10362276;28;20442;-29
2024/01/16 18:12:43;;;;;;;6.20;5.07;;;;;;;16.64;38.64;95649.16;10361445;28;20032;-29
2024/01/16 18:17:48;;;;;;;7.43;5.65;;;;;;;16.68;37.42;95653.31;10361804;28;20041;-29
2024/01/16 18:22:55;;;;;;;11.80;10.63;;;;;;;16.69;37.47;95660.03;10361779;28;20034;-28
2024/01/16 18:27:57;;;;;;;16.20;14.18;;;;;;;16.74;36.31;95648.22;10369302;28;20064;-29
2024/01/16 18:32:57;;;;;;;18.40;16.10;;;;;;;16.71;39.40;95643.16;10364969;28;20030;-30
2024/01/16 18:37:57;;;;;;;21.73;16.60;;;;;;;16.69;39.40;95632.25;10370434;28;20502;-30
2024/01/16 18:42:58;;;;;;;18.50;13.60;;;;;;;16.71;38.43;95643.16;10368340;28;20041;-30
2024/01/16 18:47:58;;;;;;;19.10;13.63;;;;;;;16.69;38.76;95623.84;10368852;28;20072;-32
2024/01/16 18:52:58;;;;;;;19.43;13.37;;;;;;;16.69;37.85;95614.56;10369112;28;20116;-30
2024/01/16 18:58:01;;;;;;;16.23;14.33;;;;;;;16.67;38.43;95598.59;10367619;28;20041;-29
2024/01/16 19:03:02;;;;;;;19.95;16.52;;;;;;;16.67;39.73;95607.84;10366968;28;20116;-30
2024/01/16 19:08:04;;;;;;;22.67;17.67;;;;;;;16.73;37.02;95593.47;10368189;28;20034;-30
2024/01/16 19:13:04;;;;;;;23.23;17.88;;;;;;;16.72;38.88;95584.22;10364584;28;20080;-30
2024/01/16 19:18:05;;;;;;;21.48;19.13;;;;;;;16.73;38.47;95564.81;10365063;28;20029;-30
2024/01/16 19:23:05;;;;;;;20.98;18.33;;;;;;;16.73;38.26;95550.50;10365092;28;20042;-29
2024/01/16 19:28:06;;;;;;;16.03;14.33;;;;;;;16.77;34.86;95552.13;10364433;28;20109;-29
2024/01/16 19:33:08;;;;;;;16.33;12.90;;;;;;;16.76;33.66;95547.94;10351242;28;20410;-31
2024/01/16 19:38:08;;;;;;;15.70;10.38;;;;;;;16.74;32.97;95534.50;10358291;28;20034;-30
2024/01/16 19:43:08;;;;;;;12.27;8.88;;;;;;;16.62;33.38;95532.09;10359653;28;20052;-31
2024/01/16 19:48:12;;;;;;;14.23;10.50;;;;;;;16.64;34.29;95520.31;10358504;28;20030;-30
2024/01/16 19:53:14;;;;;;;5.72;4.78;;;;;;;16.17;30.14;95522.47;10360711;28;20306;-30
2024/01/16 19:58:15;;;;;;;3.40;2.83;;;;;;;15.37;28.12;95514.75;10359552;28;20421;-30
2024/01/16 20:03:15;;;;;;;3.97;2.67;;;;;;;15.13;27.12;95509.03;10361338;28;20045;-30
2024/01/16 20:08:15;;;;;;;2.70;2.20;;;;;;;15.02;26.65;95485.59;10362936;28;20038;-30
2024/01/16 20:13:16;;;;;;;4.53;3.13;;;;;;;14.95;26.70;95484.75;10361302;28;20030;-29
2024/01/16 20:18:16;;;;;;;5.07;2.78;;;;;;;14.91;26.60;95478.06;10361766;28;20116;-30
2024/01/16 20:23:17;;;;;;;4.00;2.73;;;;;;;14.87;26.79;95470.53;10361199;28;20046;-31
2024/01/16 20:28:17;;;;;;;6.53;4.33;;;;;;;14.74;26.87;95466.41;10362318;28;20087;-30
2024/01/16 20:33:17;;;;;;;8.70;5.20;;;;;;;15.55;32.97;95464.19;10356808;28;20905;-29
2024/01/16 20:38:18;;;;;;;7.70;5.93;;;;;;;15.94;35.10;95461.28;10360352;28;20037;-31
2024/01/16 20:43:18;;;;;;;6.90;6.20;;;;;;;16.10;35.06;95464.50;10359086;28;20090;-30
2024/01/16 20:48:18;;;;;;;7.03;6.30;;;;;;;16.18;35.13;95457.69;10359632;28;20497;-30
2024/01/16 20:53:20;;;;;;;5.80;4.90;;;;;;;16.24;35.52;95447.47;10361023;28;20049;-30
2024/01/16 20:58:21;;;;;;;6.38;4.88;;;;;;;16.27;35.40;95433.13;10360513;28;20037;-30
2024/01/16 21:03:24;;;;;;;6.15;5.30;;;;;;;16.27;35.72;95423.03;10357716;28;20038;-30
2024/01/16 21:08:24;;;;;;;5.40;4.63;;;;;;;16.33;35.30;95417.91;10360100;28;20069;-30
2024/01/16 21:13:26;;;;;;;5.68;4.45;;;;;;;16.34;35.69;95406.97;10363753;28;20125;-29
2024/01/16 21:18:30;;;;;;;9.93;6.55;;;;;;;16.36;36.47;95402.72;10363832;28;20646;-30
2024/01/16 21:23:31;;;;;;;8.50;7.60;;;;;;;16.36;36.60;95385.03;10363720;28;20034;-29
2024/01/16 21:28:31;;;;;;;12.32;10.05;;;;;;;16.36;37.26;95377.47;10362729;28;20038;-29
2024/01/16 21:33:32;;;;;;;10.17;8.93;;;;;;;16.42;37.00;95374.06;10359730;28;20040;-29
2024/01/16 21:38:32;;;;;;;11.52;8.90;;;;;;;16.39;38.84;95362.31;10360989;28;20062;-29
2024/01/16 21:43:33;;;;;;;10.27;8.67;;;;;;;16.38;39.18;95367.38;10363247;28;20405;-29
2024/01/16 21:48:34;;;;;;;9.95;8.85;;;;;;;16.38;39.75;95357.28;10361226;28;20034;-30
2024/01/16 21:53:36;;;;;;;12.90;9.75;;;;;;;16.38;39.10;95345.47;10363584;28;20038;-29
2024/01/16 21:58:36;;;;;;;10.38;9.13;;;;;;;16.38;39.75;95348.00;10363164;28;20100;-30
2024/01/16 22:03:37;;;;;;;12.07;10.00;;;;;;;16.36;39.69;95329.47;10368907;28;20549;-29
2024/01/16 22:08:39;;;;;;;12.50;10.18;;;;;;;16.37;39.85;95318.56;10370660;28;20293;-30
2024/01/16 22:13:40;;;;;;;11.23;8.45;;;;;;;16.39;39.41;95324.44;10370856;28;20041;-29
2024/01/16 22:18:41;;;;;;;11.70;9.13;;;;;;;16.35;40.01;95314.38;10370192;28;20453;-30
2024/01/16 22:23:41;;;;;;;11.27;9.60;;;;;;;16.39;40.22;95319.38;10369424;28;20045;-29
2024/01/16 22:28:44;;;;;;;11.23;8.77;;;;;;;16.38;40.10;95310.13;10371218;28;20042;-29
2024/01/16 22:33:44;;;;;;;12.98;8.73;;;;;;;16.38;40.57;95310.13;10369006;28;20049;-30
2024/01/16 22:38:46;;;;;;;11.60;9.87;;;;;;;16.39;40.67;95306.75;10369917;28;20508;-29
2024/01/16 22:43:49;;;;;;;10.18;8.95;;;;;;;16.37;40.52;95293.28;10366429;28;20128;-29
2024/01/16 22:48:49;;;;;;;9.13;8.20;;;;;;;16.34;40.53;95282.38;10368889;28;20029;-30
2024/01/16 22:53:50;;;;;;;9.33;8.43;;;;;;;16.33;41.14;95283.22;10368991;28;20045;-31
2024/01/16 22:58:50;;;;;;;9.93;8.27;;;;;;;16.38;40.46;95279.81;10368355;28;20026;-29
2024/01/16 23:03:56;;;;;;;10.67;9.33;;;;;;;16.37;40.86;95268.03;10364871;28;20815;-29
2024/01/16 23:08:59;;;;;;;10.27;8.67;;;;;;;16.37;40.54;95265.53;10368314;28;20057;-29
2024/01/16 23:14:02;;;;;;;9.95;7.90;;;;;;;16.38;40.79;95263.84;10367128;28;20121;-29
2024/01/16 23:19:02;;;;;;;10.70;7.85;;;;;;;16.33;40.38;95236.09;10367582;28;20045;-30